KVPS/VPS METAR and TAF weather

Enter ICAO airport designator
Station Type Date Time Source
KVPS METAR 2021/03/09 10:56 UTC NOAA

KVPS 091056Z AUTO 00000KT 10SM CLR 04/03 A3048 RMK AO2 SLP329 T00400030 $


Station Type Date Time Source
KVPS Decoded METAR 2021/03/09 10:56 UTC NOAA

Valparaiso / Eglin Air Force Base, FL, United States (KVPS) 30-29N 086-31W 29M
Mar 09, 2021 - 05:56 AM EST / 2021.03.09 1056 UTC
Wind: Calm:0
Visibility: 10 mile(s):0
Sky conditions: clear
Temperature: 39.2 F (4.0 C)
Dew Point: 37.4 F (3.0 C)
Relative Humidity: 93%
Pressure (altimeter): 30.48 in. Hg (1032 hPa)
ob: KVPS 091056Z AUTO 00000KT 10SM CLR 04/03 A3048 RMK AO2 SLP329 T00400030
cycle: 11

Station Type Date Time Source
KVPS TAF 2021/03/09 10:07 UTC NOAA

TAF KVPS 091000Z 0910/1016 36005KT 9999 SKC QNH3042INS
BECMG 0916/0917 16009KT 9999 FEW250 QNH3040INS WND 12008KT AFT 1002
BECMG 1011/1012 13008KT 9999 FEW010 SCT250 QNH3040INS TX21/0920Z TN04/0911Z

Example: see airport list